createdAt,value
2022-12-16T00:01:19.313Z,95320.47
2022-12-16T00:03:49.684Z,95310.91
2022-12-16T00:06:21.376Z,95315.97
2022-12-16T00:08:49.375Z,95317.72
2022-12-16T00:11:17.203Z,95307.38
2022-12-16T00:13:45.101Z,95313.50
2022-12-16T00:16:16.762Z,95308.31
2022-12-16T00:18:45.944Z,95321.16
2022-12-16T00:21:14.142Z,95331.28
2022-12-16T00:23:42.582Z,95332.25
2022-12-16T00:26:10.448Z,95321.97
2022-12-16T00:28:38.590Z,95322.59
2022-12-16T00:31:07.100Z,95329.13
2022-12-16T00:33:36.762Z,95314.53
2022-12-16T00:36:05.213Z,95325.88
2022-12-16T00:38:33.205Z,95327.69
2022-12-16T00:41:01.051Z,95319.94
2022-12-16T00:43:29.157Z,95327.09
2022-12-16T00:45:57.210Z,95329.97
2022-12-16T00:48:25.847Z,95320.09
2022-12-16T00:50:56.149Z,95322.59
2022-12-16T00:53:25.764Z,95324.44
2022-12-16T00:55:53.884Z,95326.03
2022-12-16T00:58:21.786Z,95322.69
2022-12-16T01:00:52.447Z,95334.03
2022-12-16T01:03:21.947Z,95327.84
2022-12-16T01:05:50.431Z,95333.47
2022-12-16T01:08:19.830Z,95347.19
2022-12-16T01:10:52.021Z,95341.22
2022-12-16T01:13:20.396Z,95342.22
2022-12-16T01:15:48.555Z,95346.25
2022-12-16T01:18:16.708Z,95344.44
2022-12-16T01:20:44.833Z,95350.66
2022-12-16T01:23:12.707Z,95343.00
2022-12-16T01:25:41.983Z,95348.50
2022-12-16T01:28:10.003Z,95341.13
2022-12-16T01:30:37.865Z,95348.22
2022-12-16T01:33:05.663Z,95358.41
2022-12-16T01:38:21.380Z,95362.22
2022-12-16T01:40:51.599Z,95369.06
2022-12-16T01:43:25.245Z,95371.34
2022-12-16T01:45:54.369Z,95368.66
2022-12-16T01:48:33.352Z,95381.69
2022-12-16T01:51:05.781Z,95383.66
2022-12-16T01:53:34.945Z,95377.59
2022-12-16T01:56:04.632Z,95381.69
2022-12-16T01:58:35.942Z,95389.31
2022-12-16T02:01:04.486Z,95384.22
2022-12-16T02:03:36.829Z,95386.78
2022-12-16T02:06:07.971Z,95393.72
2022-12-16T02:08:36.767Z,95385.19
2022-12-16T02:11:30.094Z,95388.91
2022-12-16T02:14:14.514Z,95389.59
2022-12-16T02:16:51.665Z,95392.81
2022-12-16T02:19:43.362Z,95393.72
2022-12-16T02:22:26.816Z,95407.63
2022-12-16T02:25:17.996Z,95402.31
2022-12-16T02:27:56.871Z,95405.06
2022-12-16T02:30:53.277Z,95402.16
2022-12-16T02:34:10.934Z,95394.50
2022-12-16T02:36:57.962Z,95403.00
2022-12-16T02:39:34.966Z,95397.19
2022-12-16T02:42:12.469Z,95406.09
2022-12-16T02:44:49.918Z,95401.47
2022-12-16T02:47:19.879Z,95405.94
2022-12-16T02:49:50.549Z,95413.66
2022-12-16T02:52:22.782Z,95413.50
2022-12-16T02:54:55.430Z,95417.56
2022-12-16T02:57:42.225Z,95425.19
2022-12-16T03:00:13.687Z,95430.16
2022-12-16T03:02:50.715Z,95430.22
2022-12-16T03:05:24.578Z,95427.47
2022-12-16T03:07:55.241Z,95430.81
2022-12-16T03:10:27.566Z,95435.38
2022-12-16T03:13:00.451Z,95431.81
2022-12-16T03:15:32.173Z,95426.56
2022-12-16T03:18:03.612Z,95426.56
2022-12-16T03:20:37.008Z,95427.34
2022-12-16T03:23:11.319Z,95432.53
2022-12-16T03:25:44.254Z,95441.47
2022-12-16T03:28:26.946Z,95437.69
2022-12-16T03:31:01.210Z,95443.97
2022-12-16T03:33:39.391Z,95441.25
2022-12-16T03:36:13.992Z,95443.63
2022-12-16T03:38:42.589Z,95451.59
2022-12-16T03:41:10.644Z,95456.69
2022-12-16T03:43:40.435Z,95449.03
2022-12-16T03:46:09.724Z,95455.69
2022-12-16T03:48:46.803Z,95461.59
2022-12-16T03:51:14.736Z,95459.97
2022-12-16T03:53:42.556Z,95459.22
2022-12-16T03:56:10.703Z,95471.16
2022-12-16T03:58:40.133Z,95466.00
2022-12-16T04:01:09.332Z,95465.22
2022-12-16T04:03:39.420Z,95469.41
2022-12-16T04:06:08.014Z,95465.53
2022-12-16T04:08:36.110Z,95470.34
2022-12-16T04:11:21.966Z,95468.56
2022-12-16T04:14:03.681Z,95466.00
2022-12-16T04:16:49.877Z,95470.38
2022-12-16T04:19:42.821Z,95478.22
2022-12-16T04:22:32.944Z,95483.75
2022-12-16T04:25:03.561Z,95482.56
2022-12-16T04:27:31.375Z,95483.53
2022-12-16T04:30:16.931Z,95487.66
2022-12-16T04:33:02.221Z,95486.22
2022-12-16T04:35:48.744Z,95486.88
2022-12-16T04:38:34.078Z,95491.50
2022-12-16T04:41:19.217Z,95494.84
2022-12-16T04:44:04.717Z,95495.63
2022-12-16T04:46:50.265Z,95500.88
2022-12-16T04:49:35.551Z,95513.72
2022-12-16T04:52:22.603Z,95509.41
2022-12-16T04:55:07.716Z,95507.59
2022-12-16T04:57:53.806Z,95514.56
2022-12-16T05:00:39.100Z,95522.13
2022-12-16T05:03:24.791Z,95517.25
2022-12-16T05:06:10.267Z,95524.84
2022-12-16T05:08:57.002Z,95532.53
2022-12-16T05:11:42.579Z,95531.06
2022-12-16T05:14:27.702Z,95530.91
2022-12-16T05:17:18.166Z,95542.19
2022-12-16T05:20:03.585Z,95546.44
2022-12-16T05:22:49.054Z,95548.28
2022-12-16T05:25:35.774Z,95546.09
2022-12-16T05:28:21.571Z,95551.75
2022-12-16T05:31:07.248Z,95548.38
2022-12-16T05:33:52.743Z,95557.13
2022-12-16T05:36:39.436Z,95560.34
2022-12-16T05:39:24.635Z,95560.34
2022-12-16T05:42:22.599Z,95567.41
2022-12-16T05:45:07.881Z,95563.91
2022-12-16T05:47:54.010Z,95576.72
2022-12-16T05:50:40.150Z,95587.91
2022-12-16T05:53:28.528Z,95589.19
2022-12-16T05:56:13.716Z,95590.16
2022-12-16T05:59:00.231Z,95586.53
2022-12-16T06:01:45.453Z,95596.69
2022-12-16T06:04:30.894Z,95594.16
2022-12-16T06:07:15.896Z,95608.66
2022-12-16T06:10:01.140Z,95600.50
2022-12-16T06:12:46.365Z,95611.78
2022-12-16T06:15:33.289Z,95619.25
2022-12-16T06:18:18.439Z,95627.72
2022-12-16T06:21:03.623Z,95628.75
2022-12-16T06:23:48.838Z,95632.13
2022-12-16T06:26:34.170Z,95640.66
2022-12-16T06:29:19.162Z,95649.25
2022-12-16T06:32:05.773Z,95653.59
2022-12-16T06:34:51.001Z,95656.13
2022-12-16T06:37:36.119Z,95663.78
2022-12-16T06:40:22.136Z,95668.13
2022-12-16T06:43:07.427Z,95665.53
2022-12-16T06:45:52.646Z,95668.84
2022-12-16T06:48:39.042Z,95674.72
2022-12-16T06:51:24.325Z,95679.84
2022-12-16T06:54:14.897Z,95686.75
2022-12-16T06:57:00.423Z,95682.34
2022-12-16T06:59:45.891Z,95696.25
2022-12-16T07:02:31.352Z,95697.78
2022-12-16T07:05:19.006Z,95700.63
2022-12-16T07:08:07.896Z,95713.38
2022-12-16T07:10:55.453Z,95711.06
2022-12-16T07:13:42.159Z,95715.97
2022-12-16T07:16:27.366Z,95723.84
2022-12-16T07:19:12.800Z,95725.56
2022-12-16T07:21:59.635Z,95735.75
2022-12-16T07:24:45.102Z,95740.22
2022-12-16T07:27:30.489Z,95741.00
2022-12-16T07:30:15.735Z,95752.16
2022-12-16T07:33:01.359Z,95748.16
2022-12-16T07:35:46.467Z,95755.81
2022-12-16T07:38:33.014Z,95754.13
2022-12-16T07:41:18.479Z,95755.81
2022-12-16T07:44:03.826Z,95759.09
2022-12-16T07:46:49.023Z,95765.09
2022-12-16T07:49:34.255Z,95778.63
2022-12-16T07:52:19.399Z,95773.53
2022-12-16T07:55:05.951Z,95778.44
2022-12-16T07:57:51.290Z,95781.31
2022-12-16T08:00:37.003Z,95781.09
2022-12-16T08:03:22.388Z,95795.91
2022-12-16T08:06:08.306Z,95790.53
2022-12-16T08:08:53.693Z,95794.56
2022-12-16T08:11:40.112Z,95803.94
2022-12-16T08:14:34.448Z,95801.19
2022-12-16T08:17:19.940Z,95808.91
2022-12-16T08:20:05.388Z,95814.72
2022-12-16T08:22:50.742Z,95808.53
2022-12-16T08:25:36.612Z,95821.41
2022-12-16T08:28:23.485Z,95824.78
2022-12-16T08:31:09.574Z,95823.88
2022-12-16T08:33:54.803Z,95838.63
2022-12-16T08:36:41.247Z,95842.81
2022-12-16T08:39:26.448Z,95840.44
2022-12-16T08:42:11.797Z,95845.50
2022-12-16T08:44:58.270Z,95848.84
2022-12-16T08:47:43.835Z,95848.91
2022-12-16T08:50:28.269Z,95854.78
2022-12-16T08:53:13.787Z,95862.66
2022-12-16T08:55:58.921Z,95861.78
2022-12-16T08:58:44.365Z,95868.50
2022-12-16T09:01:30.953Z,95874.81
2022-12-16T09:04:16.170Z,95872.03
2022-12-16T09:07:01.326Z,95877.72
2022-12-16T09:09:46.542Z,95880.28
2022-12-16T09:12:31.962Z,95887.19
2022-12-16T09:15:19.389Z,95893.00
2022-12-16T09:18:13.010Z,95893.66
2022-12-16T09:20:58.784Z,95892.81
2022-12-16T09:23:44.606Z,95897.00
2022-12-16T09:26:30.171Z,95893.66
2022-12-16T09:29:15.457Z,95900.38
2022-12-16T09:32:00.969Z,95905.44
2022-12-16T09:34:47.365Z,95908.94
2022-12-16T09:37:32.590Z,95914.94
2022-12-16T09:40:18.005Z,95921.56
2022-12-16T09:43:09.268Z,95926.78
2022-12-16T09:46:04.205Z,95921.56
2022-12-16T09:49:00.132Z,95921.38
2022-12-16T09:51:47.792Z,95924.59
2022-12-16T09:54:38.134Z,95925.25
2022-12-16T09:57:26.171Z,95928.16
2022-12-16T10:00:15.893Z,95923.91
2022-12-16T10:03:06.918Z,95927.19
2022-12-16T10:06:02.558Z,95933.28
2022-12-16T10:08:55.557Z,95931.41
2022-12-16T10:11:46.475Z,95931.16
2022-12-16T10:14:36.092Z,95929.25
2022-12-16T10:17:30.516Z,95935.28
2022-12-16T10:20:22.202Z,95933.47
2022-12-16T10:23:14.491Z,95934.56
2022-12-16T10:26:08.476Z,95935.50
2022-12-16T10:29:03.914Z,95940.78
2022-12-16T10:31:50.761Z,95946.81
2022-12-16T10:34:39.578Z,95943.97
2022-12-16T10:37:25.035Z,95942.94
2022-12-16T10:40:16.627Z,95949.78
2022-12-16T10:43:08.087Z,95945.31
2022-12-16T10:45:59.165Z,95950.63
2022-12-16T10:49:01.995Z,95940.06
2022-12-16T10:51:48.392Z,95943.03
2022-12-16T10:54:49.036Z,95944.56
2022-12-16T10:57:45.253Z,95941.97
2022-12-16T11:00:35.398Z,95942.75
2022-12-16T11:03:39.508Z,95949.97
2022-12-16T11:06:26.397Z,95955.94
2022-12-16T11:09:11.872Z,95951.09
2022-12-16T11:11:57.271Z,95955.16
2022-12-16T11:14:59.468Z,95967.94
2022-12-16T11:17:50.532Z,95966.91
2022-12-16T11:20:38.535Z,95967.97
2022-12-16T11:23:28.558Z,95965.13
2022-12-16T11:26:29.386Z,95961.13
2022-12-16T11:29:33.232Z,95968.75
2022-12-16T11:32:21.762Z,95971.00
2022-12-16T11:35:14.326Z,95973.59
2022-12-16T11:38:02.261Z,95970.31
2022-12-16T11:40:49.930Z,95961.63
2022-12-16T11:43:37.208Z,95968.13
2022-12-16T11:46:27.510Z,95975.88
2022-12-16T11:49:23.483Z,95976.94
2022-12-16T11:52:35.901Z,95985.34
2022-12-16T11:56:02.915Z,95984.66
2022-12-16T11:58:43.106Z,95984.88
2022-12-16T12:01:32.914Z,95982.50
2022-12-16T12:04:21.300Z,95992.13
2022-12-16T12:07:22.916Z,95989.97
2022-12-16T12:10:13.341Z,95994.00
2022-12-16T12:13:01.006Z,96000.03
2022-12-16T12:15:53.434Z,96004.50
2022-12-16T12:18:59.827Z,96005.16
2022-12-16T12:21:51.685Z,96011.75
2022-12-16T12:24:47.739Z,96018.19
2022-12-16T12:27:42.498Z,96023.69
2022-12-16T12:30:31.447Z,96029.16
2022-12-16T12:33:38.919Z,96028.19
2022-12-16T12:36:38.284Z,96029.66
2022-12-16T12:39:38.167Z,96020.00
2022-12-16T12:42:36.864Z,96023.69
2022-12-16T12:45:42.383Z,96027.84
2022-12-16T12:48:37.913Z,96027.72
2022-12-16T12:51:30.853Z,96033.97
2022-12-16T12:54:27.665Z,96039.00
2022-12-16T12:57:18.995Z,96036.56
2022-12-16T13:00:11.748Z,96034.16
2022-12-16T13:03:06.183Z,96039.25
2022-12-16T13:05:55.315Z,96035.97
2022-12-16T13:09:03.402Z,96047.13
2022-12-16T13:11:49.236Z,96045.13
2022-12-16T13:15:13.952Z,96049.38
2022-12-16T13:18:38.845Z,96049.31
2022-12-16T13:22:03.136Z,96058.06
2022-12-16T13:25:01.358Z,96061.69
2022-12-16T13:27:49.529Z,96072.97
2022-12-16T13:30:43.883Z,96079.84
2022-12-16T13:33:46.921Z,96078.69
2022-12-16T13:36:35.298Z,96085.56
2022-12-16T13:39:39.626Z,96089.00
2022-12-16T13:42:25.278Z,96083.72
2022-12-16T13:45:17.766Z,96099.47
2022-12-16T13:48:22.849Z,96100.38
2022-12-16T13:51:18.067Z,96101.50
2022-12-16T13:54:08.116Z,96105.81
2022-12-16T13:56:56.708Z,96106.69
2022-12-16T13:59:45.222Z,96118.59
2022-12-16T14:02:45.090Z,96119.84
2022-12-16T14:05:40.738Z,96123.50
2022-12-16T14:08:33.105Z,96131.28
2022-12-16T14:11:21.821Z,96135.00
2022-12-16T14:14:17.261Z,96144.06
2022-12-16T14:17:10.791Z,96146.53
2022-12-16T14:20:09.279Z,96153.25
2022-12-16T14:23:10.719Z,96157.03
2022-12-16T14:25:59.380Z,96162.88
2022-12-16T14:28:48.117Z,96163.78
2022-12-16T14:31:37.046Z,96181.38
2022-12-16T14:34:23.322Z,96183.94
2022-12-16T14:37:08.768Z,96187.81
2022-12-16T14:39:58.209Z,96190.16
2022-12-16T14:42:45.833Z,96190.63
2022-12-16T14:45:45.349Z,96194.00
2022-12-16T14:48:52.714Z,96207.28
2022-12-16T14:51:46.615Z,96197.53
2022-12-16T14:54:37.349Z,96206.63
2022-12-16T14:57:28.809Z,96214.41
2022-12-16T15:00:35.059Z,96224.13
2022-12-16T15:03:26.834Z,96226.78
2022-12-16T15:06:12.755Z,96217.38
2022-12-16T15:09:07.804Z,96219.13
2022-12-16T15:11:55.006Z,96221.00
2022-12-16T15:14:47.526Z,96223.91
2022-12-16T15:17:39.435Z,96218.78
2022-12-16T15:20:33.147Z,96227.22
2022-12-16T15:23:18.423Z,96230.81
2022-12-16T15:26:08.230Z,96234.31
2022-12-16T15:28:59.199Z,96238.69
2022-12-16T15:31:50.500Z,96240.50
2022-12-16T15:34:42.061Z,96248.38
2022-12-16T15:37:36.270Z,96258.72
2022-12-16T15:40:22.610Z,96264.97
2022-12-16T15:43:11.289Z,96264.41
2022-12-16T15:45:56.568Z,96274.47
2022-12-16T15:48:46.450Z,96274.47
2022-12-16T15:51:47.393Z,96271.31
2022-12-16T15:54:35.913Z,96283.25
2022-12-16T15:57:21.951Z,96287.56
2022-12-16T16:00:16.433Z,96291.16
2022-12-16T16:03:07.056Z,96302.34
2022-12-16T16:05:54.531Z,96309.31
2022-12-16T16:08:39.889Z,96314.63
2022-12-16T16:11:26.660Z,96318.88
2022-12-16T16:14:14.321Z,96323.25
2022-12-16T16:17:00.050Z,96329.34
2022-12-16T16:19:46.434Z,96332.88
2022-12-16T16:22:34.598Z,96331.88
2022-12-16T16:25:20.037Z,96324.97
2022-12-16T16:28:05.505Z,96328.44
2022-12-16T16:30:51.211Z,96334.38
2022-12-16T16:33:36.967Z,96343.13
2022-12-16T16:36:34.220Z,96344.91
2022-12-16T16:39:21.209Z,96341.44
2022-12-16T16:42:05.605Z,96351.72
2022-12-16T16:44:51.106Z,96349.19
2022-12-16T16:47:36.303Z,96352.81
2022-12-16T16:50:22.180Z,96342.38
2022-12-16T16:53:07.476Z,96351.94
2022-12-16T16:55:53.847Z,96359.63
2022-12-16T16:58:43.989Z,96361.41
2022-12-16T17:01:31.697Z,96362.16
2022-12-16T17:04:17.461Z,96369.16
2022-12-16T17:07:02.613Z,96373.47
2022-12-16T17:09:47.788Z,96373.50
2022-12-16T17:12:38.496Z,96375.16
2022-12-16T17:15:34.392Z,96384.66
2022-12-16T17:18:20.356Z,96383.81
2022-12-16T17:21:05.615Z,96392.41
2022-12-16T17:23:50.748Z,96398.44
2022-12-16T17:26:36.740Z,96408.75
2022-12-16T17:29:23.844Z,96408.06
2022-12-16T17:32:09.647Z,96414.19
2022-12-16T17:34:54.831Z,96408.78
2022-12-16T17:37:39.970Z,96420.03
2022-12-16T17:40:26.052Z,96415.63
2022-12-16T17:43:11.322Z,96422.53
2022-12-16T17:45:57.763Z,96423.34
2022-12-16T17:48:45.573Z,96432.88
2022-12-16T17:51:31.065Z,96432.84
2022-12-16T17:54:23.812Z,96439.81
2022-12-16T17:57:14.417Z,96433.72
2022-12-16T17:59:59.733Z,96439.81
2022-12-16T18:02:46.414Z,96438.13
2022-12-16T18:05:38.714Z,96446.78
2022-12-16T18:08:24.829Z,96445.13
2022-12-16T18:11:10.576Z,96441.63
2022-12-16T18:13:55.858Z,96446.91
2022-12-16T18:16:41.312Z,96453.72
2022-12-16T18:19:29.807Z,96464.22
2022-12-16T18:22:11.728Z,96462.28
2022-12-16T18:24:57.151Z,96467.56
2022-12-16T18:27:42.740Z,96467.50
2022-12-16T18:30:30.178Z,96476.19
2022-12-16T18:33:15.816Z,96479.59
2022-12-16T18:36:02.439Z,96484.78
2022-12-16T18:38:47.729Z,96484.03
2022-12-16T18:41:34.565Z,96487.63
2022-12-16T18:44:20.752Z,96484.19
2022-12-16T18:47:06.489Z,96495.25
2022-12-16T18:49:51.578Z,96500.66
2022-12-16T18:52:38.854Z,96503.16
2022-12-16T18:55:25.486Z,96495.50
2022-12-16T18:58:34.936Z,96502.50
2022-12-16T19:01:20.378Z,96505.94
2022-12-16T19:04:05.786Z,96511.16
2022-12-16T19:06:51.182Z,96515.50
2022-12-16T19:09:37.933Z,96519.69
2022-12-16T19:12:23.997Z,96522.34
2022-12-16T19:15:09.222Z,96527.63
2022-12-16T19:17:54.644Z,96533.59
2022-12-16T19:20:36.870Z,96537.03
2022-12-16T19:23:22.334Z,96536.22
2022-12-16T19:26:15.237Z,96539.59
2022-12-16T19:29:00.450Z,96540.53
2022-12-16T19:31:45.899Z,96543.13
2022-12-16T19:34:31.136Z,96545.00
2022-12-16T19:37:16.732Z,96550.91
2022-12-16T19:40:02.112Z,96558.00
2022-12-16T19:42:49.161Z,96562.22
2022-12-16T19:45:35.011Z,96579.50
2022-12-16T19:48:20.846Z,96573.41
2022-12-16T19:51:06.225Z,96587.22
2022-12-16T19:53:50.683Z,96581.22
2022-12-16T19:56:37.310Z,96582.91
2022-12-16T19:59:23.885Z,96584.63
2022-12-16T20:02:14.816Z,96591.47
2022-12-16T20:05:00.504Z,96599.34
2022-12-16T20:07:46.175Z,96597.56
2022-12-16T20:10:31.764Z,96601.13
2022-12-16T20:13:24.928Z,96602.03
2022-12-16T20:16:22.681Z,96606.38
2022-12-16T20:19:08.337Z,96618.44
2022-12-16T20:21:57.060Z,96616.72
2022-12-16T20:24:44.469Z,96618.53
2022-12-16T20:27:30.896Z,96626.31
2022-12-16T20:30:18.505Z,96633.22
2022-12-16T20:33:06.577Z,96637.56
2022-12-16T20:35:52.280Z,96637.66
2022-12-16T20:38:41.774Z,96632.38
2022-12-16T20:41:27.308Z,96641.06
2022-12-16T20:44:12.387Z,96641.94
2022-12-16T20:46:58.013Z,96647.09
2022-12-16T20:49:44.899Z,96643.88
2022-12-16T20:52:30.186Z,96638.63
2022-12-16T20:55:16.469Z,96636.94
2022-12-16T20:58:01.887Z,96645.56
2022-12-16T21:00:46.641Z,96649.84
2022-12-16T21:03:32.195Z,96654.22
2022-12-16T21:06:18.833Z,96662.84
2022-12-16T21:09:04.236Z,96666.31
2022-12-16T21:11:49.591Z,96673.19
2022-12-16T21:14:35.226Z,96675.78
2022-12-16T21:17:20.386Z,96679.28
2022-12-16T21:20:06.729Z,96683.63
2022-12-16T21:22:54.351Z,96689.75
2022-12-16T21:25:44.674Z,96686.34
2022-12-16T21:28:30.188Z,96681.16
2022-12-16T21:31:16.511Z,96688.16
2022-12-16T21:34:01.920Z,96683.94
2022-12-16T21:36:47.185Z,96686.50
2022-12-16T21:39:34.133Z,96699.50
2022-12-16T21:42:19.300Z,96694.31
2022-12-16T21:45:04.459Z,96702.13
2022-12-16T21:47:49.726Z,96706.50
2022-12-16T21:50:35.534Z,96711.75
2022-12-16T21:53:21.080Z,96711.84
2022-12-16T21:56:11.562Z,96721.25
2022-12-16T21:58:56.826Z,96726.38
2022-12-16T22:01:42.364Z,96725.53
2022-12-16T22:04:28.117Z,96726.47
2022-12-16T22:07:13.692Z,96735.13
2022-12-16T22:09:59.755Z,96741.13
2022-12-16T22:12:46.674Z,96741.13
2022-12-16T22:15:32.302Z,96746.22
2022-12-16T22:18:18.578Z,96757.44
2022-12-16T22:21:14.505Z,96756.66
2022-12-16T22:23:59.874Z,96758.38
2022-12-16T22:26:45.482Z,96772.13
2022-12-16T22:29:32.263Z,96777.31
2022-12-16T22:32:20.557Z,96780.84
2022-12-16T22:35:05.763Z,96787.81
2022-12-16T22:37:51.374Z,96792.22
2022-12-16T22:40:37.151Z,96786.38
2022-12-16T22:43:22.696Z,96790.91
2022-12-16T22:46:18.832Z,96802.00
2022-12-16T22:49:19.787Z,96797.88
2022-12-16T22:52:06.159Z,96804.84
2022-12-16T22:54:52.018Z,96802.38
2022-12-16T22:57:38.958Z,96809.44
2022-12-16T23:00:25.800Z,96813.13
2022-12-16T23:03:15.062Z,96803.78
2022-12-16T23:06:00.228Z,96812.59
2022-12-16T23:08:44.638Z,96810.88
2022-12-16T23:11:36.329Z,96816.34
2022-12-16T23:14:21.739Z,96824.94
2022-12-16T23:17:07.052Z,96820.78
2022-12-16T23:19:53.489Z,96818.34
2022-12-16T23:22:41.963Z,96820.16
2022-12-16T23:25:27.708Z,96814.31
2022-12-16T23:28:13.267Z,96816.97
2022-12-16T23:31:00.355Z,96823.03
2022-12-16T23:33:46.324Z,96824.09
2022-12-16T23:36:32.808Z,96822.41
2022-12-16T23:39:18.130Z,96829.38
2022-12-16T23:42:03.494Z,96825.25
2022-12-16T23:44:53.757Z,96819.06
2022-12-16T23:47:42.159Z,96827.75
2022-12-16T23:50:27.867Z,96830.41
2022-12-16T23:53:23.578Z,96829.56
2022-12-16T23:56:09.488Z,96830.59
2022-12-16T23:58:56.388Z,96833.31
